Flight Number: EUR1469 Duration: 1:15
Departure: Arhangelsk (ULAA) at 18:15 Distance: 410 Nm
Arrival: St.Petersburg Pulkovo (ULLI) at 19:30 Equipment: B737

Weather Information
Arhangel'Sk, Russia (ULAA) 64-30N 040-44E 8M Nov 19, 2017 - 10:30 PM EST / 2017.11.20 0330 UTC
Wind: from the E (080 degrees) at 9 MPH (8 KT) (direction variable):0
Visibility: greater than 7 mile(s):0
Sky conditions: mostly clear Temperature: 19 F (-7 C)
Windchill: 8 F (-13 C):1 Dew Point: 19 F (-7 C) Relative Humidity: 100% Pressure (altimeter): 29.88 in. Hg (1012 hPa)
ob: ULAA 200330Z 08004MPS 060V160 9999 FEW020 M07/M07 Q1012 R08/920347 NOSIG RMK QFE758/1011 cycle: 3
Sunrise: 06:17 Sunset: 11:48 (UTC)

St. Peterburg, Russia (ULLI) 59-58N 030-18E 6M Nov 19, 2017 - 10:30 PM EST / 2017.11.20 0330 UTC
Wind: from the E (100 degrees) at 4 MPH (4 KT):0
Visibility: 1 mile(s):0
Sky conditions: mostly cloudy Weather: light snow showers; Cumulonimbus clouds observed Temperature: 30 F (-1 C) Dew Point: 30 F (-1 C) Relative Humidity: 100% Pressure (altimeter): 29.59 in. Hg (1002 hPa)
ob: ULLI 200330Z 10002MPS 3100 -SHSN SCT008 BKN018CB M01/M01 Q1002 R10R/510145 NOSIG cycle: 3
Sunrise: 06:15 Sunset: 13:13 (UTC)

TAF:2017/11/20 03:21 TAF TAF ULLI 200200Z 2003/2103 11003MPS 4000 BR BKN006 TEMPO 2003/2007 1500 SHSN BR BKN003 BKN015CB BECMG 2007/2009 17003MPS BKN011 TEMPO 2007/2018 3100 -SHSNRA BR BKN007 BKN015CB BECMG 2018/2020 3100 BR BKN007 BKN012 TEMPO 2021/2103 1200 -SHSN BR BKN003 BKN012CB

Previous Pireps for this route
Date Aircraft Flight time Fuel used Landing rate On time
2013-06-26MD-8101.2810457-178Charter
2015-06-26B73701.287945-177Yes
2016-01-18B73701.208000-174Yes
2016-08-30B73701.1313062-86Yes
(pireps marked green are flown by you)

Route map